SVMI METAR and TAF | Updated Today

SVMI METAR

Simón Bolívar International Airport

Observation time: 3 min. ago

SVMI 252003Z AUTO 06006KT NCD ///// Q1013

Need help? Read our tutorial on how to read METARs or read the parsed version below.

Simón Bolívar International Airport (SVMI) METAR

  • Weather conditions on Wed, 25 May 2022 20:03:00 +0000 (3 min. ago):
  • Present conditions:
  • Clouds: Nil cloud detected
  • Visibility:
  • Wind: 60 degrees at 6 knots
  • Temperature: celsius
  • Dew point: celsius
  • Pressure: 1013 millibars
  • Remarks: None


Useful to know...

SVMI TAF

Simón Bolívar International Airport

TAF SVMI 251600Z 2518/2618 09008KT 9999 SCT016 TX33/2518Z TN25/2607Z PROB30 TEMPO 2518/2522 09005KT 9000 -DZ SCT016 SCT080
Observation time: 4:06 hr. ago
Need help? Read our tutorial on how to read TAFs or read the parsed version below.

Parsed version of TAF for Simón Bolívar International Airport (SVMI)

  • From 25 May at 18:00 UTC, to day 26 of the month at 18:00 UTC
  • Clouds: Scattered at 488 meters
  • Visibility: Greater than 10 km
  • Wind: 90 degrees at 8
  • Expected to arise temporarily, from 25 May at 18:00 UTC, to day 25 of the month at 22:00 UTC
    Probability of 30%
  • Clouds: Scattered at 488 meters; scattered at 2438 meters
  • Visibility: 9000 meters
  • Wind: 90 degrees at 5
  • Other: Light drizzle

Airports near SVMI